Terminal Aerodrome Forecast
Issued by NWS

Home | Current Version | Previous Version | Text Only | Print | Product List | Glossary On
Versions: 1 2 3 4 5 6 7 8 9 10 11 12 13 14 15
918
FTUS41 KBTV 261120
TAFRUT
TAF
KRUT 261120Z 2612/2712 VRB03KT P6SM FEW100
     FM261500 26006KT P6SM BKN060
     FM261900 26006KT P6SM VCSH BKN050
     FM270400 14005KT P6SM SCT050=

USA.gov is the U.S. government's official web portal to all federal, state and local government web resources and services.